createdAt,value
2019-04-28T00:01:17.706Z,1.52
2019-04-28T00:06:21.247Z,1.35
2019-04-28T00:11:24.629Z,1.37
2019-04-28T00:16:28.019Z,1.42
2019-04-28T00:21:45.104Z,1.62
2019-04-28T00:26:51.936Z,1.40
2019-04-28T00:31:55.392Z,1.40
2019-04-28T00:37:01.313Z,1.27
2019-04-28T00:42:05.023Z,1.50
2019-04-28T00:47:08.915Z,1.50
2019-04-28T00:52:14.251Z,1.42
2019-04-28T00:57:17.876Z,1.27
2019-04-28T01:02:22.899Z,1.30
2019-04-28T01:07:26.300Z,1.65
2019-04-28T01:12:31.101Z,1.20
2019-04-28T01:17:36.250Z,1.45
2019-04-28T01:22:40.196Z,1.52
2019-04-28T01:27:45.240Z,1.30
2019-04-28T01:32:59.668Z,1.75
2019-04-28T01:38:03.037Z,1.20
2019-04-28T01:43:06.593Z,1.80
2019-04-28T01:48:10.216Z,1.55
2019-04-28T01:53:13.840Z,1.47
2019-04-28T01:58:17.229Z,1.80
2019-04-28T02:03:20.722Z,1.75
2019-04-28T02:08:24.081Z,1.60
2019-04-28T02:13:27.468Z,1.30
2019-04-28T02:18:31.024Z,1.45
2019-04-28T02:23:36.283Z,1.52
2019-04-28T02:28:40.733Z,1.62
2019-04-28T02:33:44.138Z,1.95
2019-04-28T02:38:47.756Z,2.12
2019-04-28T02:43:51.240Z,1.70
2019-04-28T02:48:54.624Z,1.90
2019-04-28T02:54:00.499Z,2.20
2019-04-28T02:59:03.342Z,2.05
2019-04-28T03:04:06.974Z,1.92
2019-04-28T03:09:10.697Z,1.72
2019-04-28T03:14:14.167Z,2.20
2019-04-28T03:19:17.638Z,2.25
2019-04-28T03:24:22.213Z,2.00
2019-04-28T03:29:35.944Z,2.10
2019-04-28T03:34:44.490Z,2.10
2019-04-28T03:39:50.418Z,2.10
2019-04-28T03:44:53.746Z,2.20
2019-04-28T03:49:57.151Z,2.20
2019-04-28T03:55:00.822Z,2.20
2019-04-28T04:00:07.421Z,1.98
2019-04-28T04:05:11.337Z,2.10
2019-04-28T04:10:36.531Z,2.25
2019-04-28T04:15:57.150Z,2.50
2019-04-28T04:21:00.907Z,2.50
2019-04-28T04:26:04.403Z,1.92
2019-04-28T04:31:10.233Z,2.42
2019-04-28T04:36:13.092Z,2.47
2019-04-28T04:41:16.708Z,2.10
2019-04-28T04:46:22.395Z,2.30
2019-04-28T04:51:26.095Z,2.67
2019-04-28T04:56:30.151Z,2.33
2019-04-28T05:01:35.623Z,2.10
2019-04-28T05:06:42.307Z,2.20
2019-04-28T05:11:45.693Z,1.87
2019-04-28T05:16:49.730Z,1.80
2019-04-28T05:21:53.143Z,1.85
2019-04-28T05:26:56.526Z,1.82
2019-04-28T05:32:03.265Z,1.90
2019-04-28T05:37:05.257Z,1.90
2019-04-28T05:42:09.765Z,1.90
2019-04-28T05:47:13.987Z,2.75
2019-04-28T05:52:35.004Z,2.10
2019-04-28T05:57:40.261Z,2.27
2019-04-28T06:02:55.936Z,2.85
2019-04-28T06:07:52.830Z,2.80
2019-04-28T06:12:56.456Z,2.72
2019-04-28T06:18:00.205Z,2.52
2019-04-28T06:23:03.544Z,2.30
2019-04-28T06:28:06.999Z,2.30
2019-04-28T06:33:10.388Z,2.22
2019-04-28T06:38:14.007Z,2.30
2019-04-28T06:43:17.393Z,2.08
2019-04-28T06:48:21.037Z,2.12
2019-04-28T06:53:24.441Z,2.10
2019-04-28T06:58:27.840Z,2.30
2019-04-28T07:03:31.242Z,2.52
2019-04-28T07:08:34.659Z,2.62
2019-04-28T07:13:38.051Z,2.72
2019-04-28T07:18:41.436Z,2.47
2019-04-28T07:23:45.127Z,2.65
2019-04-28T07:28:48.523Z,2.65
2019-04-28T07:33:52.147Z,2.30
2019-04-28T07:38:55.533Z,2.50
2019-04-28T07:43:58.915Z,2.60
2019-04-28T07:49:02.316Z,2.60
2019-04-28T07:54:07.343Z,1.82
2019-04-28T07:59:10.753Z,2.20
2019-04-28T08:04:14.156Z,2.50
2019-04-28T08:09:18.632Z,2.12
2019-04-28T08:14:22.035Z,2.25
2019-04-28T08:19:25.417Z,2.45
2019-04-28T08:24:28.823Z,2.27
2019-04-28T08:29:32.448Z,2.20
2019-04-28T08:34:35.837Z,2.40
2019-04-28T08:39:39.465Z,2.30
2019-04-28T08:44:42.853Z,2.35
2019-04-28T08:49:46.714Z,1.95
2019-04-28T08:54:50.110Z,1.98
2019-04-28T08:59:53.501Z,2.40
2019-04-28T09:04:56.893Z,2.20
2019-04-28T09:10:00.358Z,2.50
2019-04-28T09:15:04.986Z,2.00
2019-04-28T09:20:08.715Z,2.70
2019-04-28T09:25:12.100Z,2.35
2019-04-28T09:30:15.761Z,2.00
2019-04-28T09:35:19.155Z,1.85
2019-04-28T09:40:22.543Z,2.00
2019-04-28T09:45:36.412Z,1.82
2019-04-28T09:50:39.800Z,1.72
2019-04-28T09:55:43.191Z,2.02
2019-04-28T10:00:46.577Z,1.67
2019-04-28T10:05:50.209Z,2.08
2019-04-28T10:10:53.595Z,1.80
2019-04-28T10:15:57.226Z,1.75
2019-04-28T10:21:00.615Z,2.37
2019-04-28T10:26:04.084Z,2.20
2019-04-28T10:31:08.343Z,2.05
2019-04-28T10:36:12.470Z,2.40
2019-04-28T10:41:20.161Z,5.00
2019-04-28T10:46:23.798Z,3.83
2019-04-28T10:51:27.189Z,1.62
2019-04-28T10:56:30.835Z,1.72
2019-04-28T11:01:34.246Z,1.50
2019-04-28T11:06:37.868Z,1.55
2019-04-28T11:11:41.340Z,1.40
2019-04-28T11:16:45.312Z,1.70
2019-04-28T11:21:48.716Z,2.22
2019-04-28T11:26:52.115Z,1.80
2019-04-28T11:31:55.509Z,2.00
2019-04-28T11:36:58.896Z,2.17
2019-04-28T11:42:02.296Z,2.00
2019-04-28T11:47:07.633Z,2.05
2019-04-28T11:52:11.282Z,2.45
2019-04-28T11:57:14.673Z,2.20
2019-04-28T12:02:18.080Z,2.42
2019-04-28T12:07:21.554Z,2.00
2019-04-28T12:12:35.469Z,1.98
2019-04-28T12:18:04.242Z,1.70
2019-04-28T12:23:09.771Z,2.10
2019-04-28T12:28:12.928Z,2.00
2019-04-28T12:33:16.349Z,2.40
2019-04-28T12:38:19.743Z,2.35
2019-04-28T12:43:23.368Z,2.50
2019-04-28T12:48:26.757Z,2.05
2019-04-28T12:53:30.497Z,2.27
2019-04-28T12:58:34.129Z,1.98
2019-04-28T13:03:45.096Z,1.92
2019-04-28T13:08:48.485Z,1.95
2019-04-28T13:13:52.115Z,1.90
2019-04-28T13:18:55.499Z,2.12
2019-04-28T13:23:58.894Z,1.90
2019-04-28T13:29:02.292Z,2.02
2019-04-28T13:34:07.333Z,2.20
2019-04-28T13:39:12.419Z,2.35
2019-04-28T13:44:17.445Z,1.90
2019-04-28T13:49:22.500Z,2.10
2019-04-28T13:54:25.877Z,1.90
2019-04-28T13:59:29.269Z,1.70
2019-04-28T14:04:40.285Z,1.85
2019-04-28T14:09:43.701Z,1.60
2019-04-28T14:14:47.052Z,1.40
2019-04-28T14:19:50.466Z,1.50
2019-04-28T14:24:53.871Z,1.50
2019-04-28T14:29:57.221Z,1.90
2019-04-28T14:35:00.653Z,1.60
2019-04-28T14:40:06.221Z,1.65
2019-04-28T14:45:10.031Z,1.90
2019-04-28T14:50:13.520Z,1.95
2019-04-28T14:55:17.317Z,1.90
2019-04-28T15:00:37.546Z,1.90
2019-04-28T15:05:42.875Z,1.80
2019-04-28T15:10:51.167Z,2.00
2019-04-28T15:15:54.545Z,1.80
2019-04-28T15:20:57.945Z,2.25
2019-04-28T15:26:01.340Z,2.08
2019-04-28T15:31:04.764Z,1.95
2019-04-28T15:36:08.421Z,2.10
2019-04-28T15:41:21.397Z,1.67
2019-04-28T15:46:17.232Z,2.00
2019-04-28T15:51:20.632Z,1.90
2019-04-28T15:56:25.970Z,2.02
2019-04-28T16:01:29.379Z,2.05
2019-04-28T16:06:33.047Z,2.05
2019-04-28T16:11:36.473Z,2.00
2019-04-28T16:16:39.906Z,2.30
2019-04-28T16:21:43.283Z,2.27
2019-04-28T16:26:46.680Z,2.12
2019-04-28T16:31:50.086Z,2.12
2019-04-28T16:36:53.513Z,2.40
2019-04-28T16:41:56.927Z,2.20
2019-04-28T16:47:00.348Z,2.40
2019-04-28T16:52:03.749Z,2.42
2019-04-28T16:57:08.806Z,2.45
2019-04-28T17:02:16.742Z,2.70
2019-04-28T17:07:20.252Z,2.30
2019-04-28T17:12:23.648Z,1.95
2019-04-28T17:17:27.045Z,2.12
2019-04-28T17:22:30.458Z,2.10
2019-04-28T17:27:33.865Z,1.70
2019-04-28T17:32:37.340Z,1.77
2019-04-28T17:37:40.812Z,2.40
2019-04-28T17:42:44.202Z,1.95
2019-04-28T17:47:48.414Z,2.37
2019-04-28T17:52:51.885Z,2.37
2019-04-28T17:57:55.268Z,2.47
2019-04-28T18:03:16.490Z,2.20
2019-04-28T18:08:21.376Z,2.90
2019-04-28T18:13:24.908Z,2.70
2019-04-28T18:18:35.627Z,2.58
2019-04-28T18:23:39.019Z,2.47
2019-04-28T18:28:42.450Z,2.80
2019-04-28T18:33:47.720Z,2.40
2019-04-28T18:38:52.774Z,2.50
2019-04-28T18:44:03.635Z,2.15
2019-04-28T18:49:07.014Z,2.15
2019-04-28T18:54:10.450Z,2.00
2019-04-28T18:59:13.841Z,2.62
2019-04-28T19:04:17.403Z,5.35
2019-04-28T19:09:25.328Z,2.80
2019-04-28T19:14:30.358Z,2.55
2019-04-28T19:19:35.412Z,2.58
2019-04-28T19:24:38.780Z,3.22
2019-04-28T19:29:42.422Z,2.55
2019-04-28T19:34:45.824Z,2.47
2019-04-28T19:39:49.300Z,2.20
2019-04-28T19:44:52.686Z,2.70
2019-04-28T19:49:56.067Z,2.60
2019-04-28T19:55:10.148Z,2.30
2019-04-28T20:00:25.283Z,2.80
2019-04-28T20:05:28.672Z,3.05
2019-04-28T20:10:32.200Z,3.10
2019-04-28T20:15:35.585Z,3.17
2019-04-28T20:20:38.971Z,2.60
2019-04-28T20:25:42.356Z,2.98
2019-04-28T20:30:45.791Z,5.28
2019-04-28T20:36:05.696Z,2.75
2019-04-28T20:41:13.213Z,2.85
2019-04-28T20:46:16.604Z,2.87
2019-04-28T20:51:20.224Z,3.00
2019-04-28T20:56:23.621Z,3.37
2019-04-28T21:01:27.240Z,2.90
2019-04-28T21:06:30.632Z,5.97
2019-04-28T21:11:34.022Z,4.75
2019-04-28T21:16:37.410Z,6.35
2019-04-28T21:21:40.796Z,4.00
2019-04-28T21:26:44.181Z,3.20
2019-04-28T21:31:47.804Z,3.00
2019-04-28T21:36:51.188Z,3.47
2019-04-28T21:41:55.544Z,2.80
2019-04-28T21:47:16.560Z,2.98
2019-04-28T21:52:19.943Z,3.10
2019-04-28T21:57:23.332Z,3.27
2019-04-28T22:02:26.720Z,3.10
2019-04-28T22:07:30.107Z,3.17
2019-04-28T22:12:34.378Z,3.83
2019-04-28T22:17:37.768Z,3.08
2019-04-28T22:22:41.149Z,3.75
2019-04-28T22:27:44.533Z,3.50
2019-04-28T22:32:47.921Z,3.52
2019-04-28T22:37:51.307Z,3.35
2019-04-28T22:42:54.926Z,3.37
2019-04-28T22:47:58.311Z,3.47
2019-04-28T22:53:01.696Z,3.55
2019-04-28T22:58:06.730Z,3.40
2019-04-28T23:03:18.636Z,3.33
2019-04-28T23:08:22.272Z,3.25
2019-04-28T23:13:25.651Z,3.58
2019-04-28T23:18:29.252Z,3.40
2019-04-28T23:23:32.826Z,3.62
2019-04-28T23:28:36.554Z,3.90
2019-04-28T23:33:39.942Z,3.87
2019-04-28T23:38:43.566Z,4.60
2019-04-28T23:43:46.944Z,3.45
2019-04-28T23:48:50.400Z,3.90
2019-04-28T23:53:58.530Z,4.05
2019-04-28T23:59:01.921Z,4.22
